Parsons Landing, Santa Catalina Island Weather observations

Data are for 10 minute period ending at time listed.
 Day   Time   Solar   Ave.   Ave.  Ave.  Vector    Max.   Stn.   Total 
  of    of     Rad.   Air    Rel.  Wind   Wind     Wind   Baro. Precip. 
Year   Day            Temp.  Hum.  Speed  Dir.     Gust   Pres.         
2015   (PST)   W/m2    F      %     mph   deg.      mph    mb.    in.   
------------------------------------------------------------------------
 117   11:40  797.0    80   22.5     4    346.7     8.4    999.0   0.00  
 117   11:50  799.0    81   22.0     5    328.9     8.4    999.0   0.00  
 117   12:00  800.0    81   21.5     5    340.4     9.0    999.0   0.00  
 117   12:10  799.0    81   20.5     5    337.5     9.0    999.0   0.00  
 117   12:20  797.0    81   19.3     4    338.9     7.8    999.0   0.00  
 117   12:30  793.0    81   18.4     5    326.6     8.4    999.0   0.00  
 117   12:40  790.0    83   16.0     4    336.7     7.8    999.0   0.00  
 117   12:50  783.0    82   16.2     4    324.1     7.2    999.0   0.00  
 117   13:00  776.0    83   14.9     5    335.7     8.4    999.0   0.00  
 117   13:10  766.0    82   14.9     5    352.8     8.4    999.0   0.00  
 117   13:20  713.0    85   13.9     4     24.1     6.6    999.0   0.00  
 117   13:30  744.0    84   14.2     5     51.5     9.6    999.0   0.00  
 117   13:40  729.0    84   14.9     5     77.3     9.6    999.0   0.00  
 117   13:50  714.0    83   15.5     5    112.2     9.0    999.0   0.00  
 117   14:00  688.0    83   14.8     4     88.9     7.8    999.0   0.00  
 117   14:10  681.0    83   15.1     4    213.5    11.9    999.0   0.00  
 117   14:20  660.0    81   15.3     9    215.8    14.3    999.0   0.00  
 117   14:30  639.0    81   15.2    10    213.0    14.3    999.0   0.00  
 117   14:40  617.0    80   15.3    11    222.2    17.3    999.0   0.00  
 117   14:50  594.0    81   14.9    11    217.8    16.1    999.0   0.00  
 117   15:00  570.0    80   14.9    10    221.7    15.5    999.0   0.00  
 117   15:10  547.0    80   15.4    10    228.9    15.5    999.0   0.00  
 117   15:20  521.0    80   22.3     7    261.2    14.9    999.0   0.00  
 117   15:30  481.0    77   39.8     7    276.2    20.9    999.0   0.00  
 117   15:40  468.0    75   43.0     5    279.1    11.3    999.0   0.00  
 117   15:50  441.0    75   43.6     6    283.0    11.9    999.0   0.00  
 117   16:00  413.0    76   37.2     7    273.7    14.3    999.0   0.00  
 117   16:10  385.0    77   27.1     9    254.4    18.5    999.0   0.00  
 117   16:20  358.0    78   20.1    11    238.3    18.5    999.0   0.00  
 117   16:30  328.0    77   21.5    11    222.5    17.3    999.0   0.00  
 117   16:40  299.0    76   24.2    14    223.0    19.1    999.0   0.00  
 117   16:50  271.0    76   24.9    12    232.0    19.1    999.0   0.00  
 117   17:00  242.0    76   24.1    12    228.5    17.9    999.0   0.00  
 117   17:10  212.0    76   24.0    13    227.0    17.9    999.0   0.00  
 117   17:20  184.0    75   25.4    11    236.5    17.3    999.0   0.00  
 117   17:30  155.0    74   29.2    13    227.4    18.5    999.0   0.00  
 117   17:40  128.0    74   27.3    14    235.4    20.3    999.0   0.00  
 117   17:50  102.0    74   22.2    16    239.8    20.3    999.0   0.00  
 117   18:00   75.0    75   18.2    18    239.9    22.1    999.0   0.00  
 117   18:10   31.0    75   18.3    18    237.0    22.1    999.0   0.00  
 117   18:20   14.0    74   20.6    18    239.4    23.3    999.0   0.00  
 117   18:30    9.0    74   18.4    18    243.8    22.7    999.0   0.00  
 117   18:40    5.0    74   18.9    16    245.7    23.3    999.0   0.00  
 117   18:50    0.0    74   19.1    15    255.3    22.1    999.0   0.00  
 117   19:00    0.0    73   23.6    15    267.4    20.3    999.0   0.00  
 117   19:10    0.0    72   26.2    20    270.1    28.6    999.0   0.00  
 117   19:20    0.0    71   28.8    18    265.4    26.8    999.0   0.00  
 117   19:30    0.0    72   26.0    17    264.2    23.9    999.0   0.00  
 117   19:40    0.0    72   26.6    16    268.0    22.1    999.0   0.00  
 117   19:50    0.0    71   25.1    15    268.7    20.9    999.0   0.00  
 117   20:00    0.0    71   26.7    14    277.4    20.9    999.0   0.00  
 117   20:10    0.0    71   28.0    13    271.3    17.9    999.0   0.00  
 117   20:20    0.0    71   26.1    14    266.1    19.7    999.0   0.00  
 117   20:30    0.0    72   25.2    14    264.2    20.9    999.0   0.00  
 117   20:40    0.0    72   25.5    14    262.3    19.7    999.0   0.00  
 117   20:50    0.0    72   26.0    13    268.9    20.3    999.0   0.00  
 117   21:00    0.0    72   26.6    13    266.5    23.9    999.0   0.00  
 117   21:10    0.0    72   25.3    14    261.7    21.5    999.0   0.00  
 117   21:20    0.0    72   24.8    13    261.6    19.7    999.0   0.00  
 117   21:30    0.0    72   24.6    13    264.9    19.1    999.0   0.00  
 117   21:40    0.0    72   24.9    12    263.9    19.7    999.0   0.00  
 117   21:50    0.0    72   25.8    10    263.4    14.9    999.0   0.00  
 117   22:00    0.0    72   25.4     9    267.6    14.3    999.0   0.00  
 117   22:10    0.0    72   24.7    10    265.8    16.7    999.0   0.00  
 117   22:20    0.0    73   24.8     9    267.6    14.3    999.0   0.00  
 117   22:30    0.0    72   26.3     7    273.3    11.3    999.0   0.00  
 117   22:40    0.0    72   26.9     7    269.1     9.6    999.0   0.00  
 117   22:50    0.0    71   27.0     7    273.1    10.2    999.0   0.00  
 117   23:00    0.0    71   27.0     6    261.3     9.6    999.0   0.00  
 117   23:10    0.0    71   26.8     6    263.5    10.8    999.0   0.00  
 117   23:20    0.0    71   26.5     6    262.7     9.0    999.0   0.00  
 117   23:30    0.0    71   26.3     6    265.3     9.6    999.0   0.00  
 117   23:40    0.0    71   26.9     8    267.8    11.9    999.0   0.00  
 117   23:50    0.0    71   26.7     7    259.9    10.8    999.0   0.00  
 118    0:00    0.0    71   26.0     7    268.5    10.2    999.0   0.00  
 118    0:10    0.0    71   26.7     7    276.3    11.3    999.0   0.00  
 118    0:20    0.0    71   26.9     8    266.8    12.5    999.0   0.00  
 118    0:30    0.0    72   25.8     9    265.1    13.7    999.0   0.00  
 118    0:40    0.0    72   27.1     8    274.2    15.5    999.0   0.00  
 118    0:50    0.0    72   28.8     6    281.0    10.2    999.0   0.00  
 118    1:00    0.0    70   30.4     7    276.9    11.3    999.0   0.00  
 118    1:10    0.0    71   31.4     8    268.1    17.3    999.0   0.00  
 118    1:20    0.0    71   33.0     8    274.4    14.9    999.0   0.00  
 118    1:30    0.0    71   33.8     7    275.0    11.3    999.0   0.00  
 118    1:40    0.0    70   36.7     7    282.6    11.9    999.0   0.00  
 118    1:50    0.0    69   37.7     8    271.7    12.5    999.0   0.00  
 118    2:00    0.0    69   37.7     8    282.2    12.5    999.0   0.00  
 118    2:10    0.0    69   37.9     7    280.1    11.3    999.0   0.00  
 118    2:20    0.0    70   36.8     7    282.7    11.9    999.0   0.00  
 118    2:30    0.0    67   42.6     2    323.0     8.4    999.0   0.00  
 118    2:40    0.0    65   52.3     3     11.7     6.6    999.0   0.00  
 118    2:50    0.0    64   54.6     2    306.5     5.4    999.0   0.00  
 118    3:00    0.0    67   43.8     4    313.9     6.6    999.0   0.00  
 118    3:10    0.0    66   48.3     3    325.2     6.0    999.0   0.00  
 118    3:20    0.0    64   51.2     1    289.9     3.6    999.0   0.00  
 118    3:30    0.0    64   52.9     2    313.9     4.8    999.0   0.00  
 118    3:40    0.0    62   52.4     1    160.8     3.0    999.0   0.00  
 118    3:50    0.0    63   55.6     2     20.5     4.8    999.0   0.00  
 118    4:00    0.0    61   58.9     2    140.3     5.4    999.0   0.00  
 118    4:10    0.0    62   49.0     2    107.3     5.4    999.0   0.00  
 118    4:20    0.0    62   52.3     1     96.5     3.0    999.0   0.00  
 118    4:30    0.0    61   63.7     2    316.2     3.0    999.0   0.00  
 118    4:40    0.0    61   63.0     1     39.5     3.0    999.0   0.00  
 118    4:50    0.0    60   63.9     1     93.2     2.4    999.0   0.00  
 118    5:00    0.0    61   51.8     1    182.9     2.4    999.0   0.00  
 118    5:10    1.0    62   48.1     2    113.0     3.0    999.0   0.00  
 118    5:20    7.0    62   42.6     2    116.6     3.0    999.0   0.00  
 118    5:30   17.0    63   45.3     1    150.7     2.4    999.0   0.00  
 118    5:40   35.0    64   42.6     2    153.4     3.0    999.0   0.00  
 118    5:50   59.0    66   43.0     2    133.6     3.0    999.0   0.00  
 118    6:00   87.0    66   44.8     1    177.8     3.0    999.0   0.00  
 118    6:10  115.0    68   48.0     2     56.0     4.2    999.0   0.00  
 118    6:20  141.0    67   55.3     2     75.3     4.8    999.0   0.00  
 118    6:30  169.0    66   57.9     2     79.7     4.8    999.0   0.00  
 118    6:40  197.0    67   57.8     2     72.8     3.6    999.0   0.00  
 118    6:50  226.0    67   61.0     3     16.8     4.2    999.0   0.00  
 118    7:00  255.0    67   65.7     2    338.8     3.6    999.0   0.00  
 118    7:10  284.0    67   70.8     4      4.8     5.4    999.0   0.00  
 118    7:20  312.0    66   72.9     3      3.4     5.4    999.0   0.00  
 118    7:30  342.0    66   74.8     3    347.1     4.2    999.0   0.00  
 118    7:40  370.0    68   72.5     4      2.6     5.4    999.0   0.00  
 118    7:50  399.0    68   71.7     2     16.8     4.2    999.0   0.00  
 118    8:00  423.0    70   68.0     2      2.2     3.6    999.0   0.00  
 118    8:10  455.0    71   65.0     2      6.1     4.2    999.0   0.00  
 118    8:20  483.0    72   63.0     2     18.0     4.2    999.0   0.00  
 118    8:30  509.0    72   61.7     3      5.9     4.2    999.0   0.00  
 118    8:40  534.0    72   59.8     3     12.5     7.2    999.0   0.00  
 118    8:50  530.0    74   51.3     4     31.0     6.6    999.0   0.00  
 118    9:00  575.0    75   40.8     4     42.4     7.2    999.0   0.00  
 118    9:10  607.0    76   42.7     3     40.1     6.0    999.0   0.00  
 118    9:20  629.0    77   35.2     5     46.6     7.2    999.0   0.00  
 118    9:30  650.0    78   35.6     4     38.2     6.6    999.0   0.00  
 118    9:40  670.0    77   41.5     3    354.5     4.8    999.0   0.00  
 118    9:50  689.0    77   46.3     3      4.3     5.4    999.0   0.00  
 118   10:00  705.0    75   50.1     3      3.3     4.8    999.0   0.00  
 118   10:10  724.0    78   30.4     4     46.4     7.8    999.0   0.00  
 118   10:20  737.0    78   38.1     4      7.4     7.2    999.0   0.00  
 118   10:30  695.0    75   44.6     3    336.5     6.0    999.0   0.00  
 118   10:40  763.0    77   42.4     4    352.0     6.0    999.0   0.00  
 118   10:50  740.0    76   39.4     5    327.5     7.2    999.0   0.00  
 118   11:00  780.0    76   37.8     5    329.5     7.2    999.0   0.00  
 118   11:10  778.0    76   36.2     4    334.6     6.6    999.0   0.00  
 118   11:20  741.0    78   33.0     4    339.7     6.0    999.0   0.00  
 118   11:30  801.0    78   35.3     4    335.4     6.6    999.0   0.00  

Return to Parsons Landing graphs page.


Western Regional Climate Center,wrcc@dri.edu